sensor_id;sensor_type;location;lat;lon;timestamp;P1;durP1;ratioP1;P2;durP2;ratioP2
35648;SDS011;21768;48.562;13.414;2023-03-13T00:03:47;180.48;;;19.38;;
35648;SDS011;21768;48.562;13.414;2023-03-13T00:06:14;214.45;;;16.55;;
35648;SDS011;21768;48.562;13.414;2023-03-13T00:08:40;249.90;;;17.90;;
35648;SDS011;21768;48.562;13.414;2023-03-13T00:11:09;127.57;;;15.85;;
35648;SDS011;21768;48.562;13.414;2023-03-13T00:13:35;202.57;;;16.45;;
35648;SDS011;21768;48.562;13.414;2023-03-13T00:16:01;187.23;;;16.83;;
35648;SDS011;21768;48.562;13.414;2023-03-13T00:18:34;194.10;;;16.35;;
35648;SDS011;21768;48.562;13.414;2023-03-13T00:21:00;137.70;;;14.77;;
35648;SDS011;21768;48.562;13.414;2023-03-13T00:23:27;224.57;;;16.90;;
35648;SDS011;21768;48.562;13.414;2023-03-13T00:25:59;271.38;;;16.05;;
35648;SDS011;21768;48.562;13.414;2023-03-13T00:28:27;257.58;;;16.08;;
35648;SDS011;21768;48.562;13.414;2023-03-13T00:31:06;280.17;;;14.90;;
35648;SDS011;21768;48.562;13.414;2023-03-13T00:33:32;300.30;;;18.85;;
35648;SDS011;21768;48.562;13.414;2023-03-13T00:35:58;164.18;;;13.52;;
35648;SDS011;21768;48.562;13.414;2023-03-13T00:38:25;173.02;;;14.05;;
35648;SDS011;21768;48.562;13.414;2023-03-13T00:40:57;119.38;;;13.43;;
35648;SDS011;21768;48.562;13.414;2023-03-13T00:43:23;184.52;;;12.73;;
35648;SDS011;21768;48.562;13.414;2023-03-13T00:45:49;146.85;;;13.93;;
35648;SDS011;21768;48.562;13.414;2023-03-13T00:48:14;144.00;;;12.82;;
35648;SDS011;21768;48.562;13.414;2023-03-13T00:50:39;100.28;;;13.43;;
35648;SDS011;21768;48.562;13.414;2023-03-13T00:53:04;139.10;;;12.55;;
35648;SDS011;21768;48.562;13.414;2023-03-13T00:55:30;161.75;;;12.32;;
35648;SDS011;21768;48.562;13.414;2023-03-13T00:57:55;113.38;;;13.35;;
35648;SDS011;21768;48.562;13.414;2023-03-13T01:00:20;143.07;;;13.93;;
35648;SDS011;21768;48.562;13.414;2023-03-13T01:02:46;224.70;;;16.02;;
35648;SDS011;21768;48.562;13.414;2023-03-13T01:05:11;249.68;;;15.68;;
35648;SDS011;21768;48.562;13.414;2023-03-13T01:07:37;291.83;;;15.82;;
35648;SDS011;21768;48.562;13.414;2023-03-13T01:10:02;233.77;;;16.73;;
35648;SDS011;21768;48.562;13.414;2023-03-13T01:12:28;283.73;;;16.92;;
35648;SDS011;21768;48.562;13.414;2023-03-13T01:14:53;239.18;;;15.95;;
35648;SDS011;21768;48.562;13.414;2023-03-13T01:17:19;178.55;;;13.75;;
35648;SDS011;21768;48.562;13.414;2023-03-13T01:19:45;185.30;;;12.43;;
35648;SDS011;21768;48.562;13.414;2023-03-13T01:22:10;182.82;;;14.77;;
35648;SDS011;21768;48.562;13.414;2023-03-13T01:24:36;123.00;;;13.18;;
35648;SDS011;21768;48.562;13.414;2023-03-13T01:27:02;127.72;;;12.55;;
35648;SDS011;21768;48.562;13.414;2023-03-13T01:29:27;119.15;;;12.25;;
35648;SDS011;21768;48.562;13.414;2023-03-13T01:31:52;156.63;;;12.10;;
35648;SDS011;21768;48.562;13.414;2023-03-13T01:34:18;198.45;;;10.93;;
35648;SDS011;21768;48.562;13.414;2023-03-13T01:36:43;192.10;;;11.90;;
35648;SDS011;21768;48.562;13.414;2023-03-13T01:39:10;226.52;;;11.48;;
35648;SDS011;21768;48.562;13.414;2023-03-13T01:41:36;219.95;;;11.75;;
35648;SDS011;21768;48.562;13.414;2023-03-13T01:44:02;177.52;;;15.13;;
35648;SDS011;21768;48.562;13.414;2023-03-13T01:46:28;249.45;;;12.38;;
35648;SDS011;21768;48.562;13.414;2023-03-13T01:52:03;166.65;;;12.93;;
35648;SDS011;21768;48.562;13.414;2023-03-13T01:54:38;192.95;;;11.75;;
35648;SDS011;21768;48.562;13.414;2023-03-13T01:59:51;173.75;;;11.65;;
35648;SDS011;21768;48.562;13.414;2023-03-13T02:02:21;113.25;;;9.13;;
35648;SDS011;21768;48.562;13.414;2023-03-13T02:04:48;159.38;;;9.68;;
35648;SDS011;21768;48.562;13.414;2023-03-13T02:07:21;146.95;;;10.05;;
35648;SDS011;21768;48.562;13.414;2023-03-13T02:09:51;131.32;;;12.48;;
35648;SDS011;21768;48.562;13.414;2023-03-13T02:12:28;160.63;;;10.07;;
35648;SDS011;21768;48.562;13.414;2023-03-13T02:14:57;129.73;;;9.90;;
35648;SDS011;21768;48.562;13.414;2023-03-13T02:17:24;148.80;;;10.82;;
35648;SDS011;21768;48.562;13.414;2023-03-13T02:19:51;118.13;;;9.38;;
35648;SDS011;21768;48.562;13.414;2023-03-13T02:27:38;93.57;;;8.73;;
35648;SDS011;21768;48.562;13.414;2023-03-13T02:30:04;51.63;;;7.90;;
35648;SDS011;21768;48.562;13.414;2023-03-13T02:32:30;86.72;;;8.68;;
35648;SDS011;21768;48.562;13.414;2023-03-13T02:34:57;78.72;;;8.32;;
35648;SDS011;21768;48.562;13.414;2023-03-13T02:37:28;83.07;;;8.18;;
35648;SDS011;21768;48.562;13.414;2023-03-13T02:39:55;75.00;;;8.75;;
35648;SDS011;21768;48.562;13.414;2023-03-13T02:42:25;45.42;;;7.47;;
35648;SDS011;21768;48.562;13.414;2023-03-13T02:44:52;51.55;;;7.65;;
35648;SDS011;21768;48.562;13.414;2023-03-13T02:47:18;33.80;;;7.28;;
35648;SDS011;21768;48.562;13.414;2023-03-13T02:49:45;55.72;;;7.80;;
35648;SDS011;21768;48.562;13.414;2023-03-13T02:52:12;42.63;;;7.75;;
35648;SDS011;21768;48.562;13.414;2023-03-13T02:54:42;38.10;;;7.20;;
35648;SDS011;21768;48.562;13.414;2023-03-13T02:57:09;28.70;;;7.32;;
35648;SDS011;21768;48.562;13.414;2023-03-13T02:59:35;47.55;;;7.55;;
35648;SDS011;21768;48.562;13.414;2023-03-13T03:02:01;24.45;;;7.40;;
35648;SDS011;21768;48.562;13.414;2023-03-13T03:04:27;25.10;;;7.15;;
35648;SDS011;21768;48.562;13.414;2023-03-13T03:06:52;37.72;;;7.63;;
35648;SDS011;21768;48.562;13.414;2023-03-13T03:09:18;93.75;;;9.32;;
35648;SDS011;21768;48.562;13.414;2023-03-13T03:11:44;46.63;;;7.82;;
35648;SDS011;21768;48.562;13.414;2023-03-13T03:14:10;23.42;;;7.32;;
35648;SDS011;21768;48.562;13.414;2023-03-13T03:16:37;61.50;;;7.68;;
35648;SDS011;21768;48.562;13.414;2023-03-13T03:19:03;62.58;;;7.68;;
35648;SDS011;21768;48.562;13.414;2023-03-13T03:21:29;46.58;;;7.90;;
35648;SDS011;21768;48.562;13.414;2023-03-13T03:23:54;29.23;;;8.15;;
35648;SDS011;21768;48.562;13.414;2023-03-13T03:26:20;65.13;;;10.10;;
35648;SDS011;21768;48.562;13.414;2023-03-13T03:28:45;34.72;;;7.28;;
35648;SDS011;21768;48.562;13.414;2023-03-13T03:31:11;64.57;;;7.45;;
35648;SDS011;21768;48.562;13.414;2023-03-13T03:33:38;45.70;;;7.32;;
35648;SDS011;21768;48.562;13.414;2023-03-13T03:36:06;48.40;;;7.78;;
35648;SDS011;21768;48.562;13.414;2023-03-13T03:38:32;79.35;;;7.85;;
35648;SDS011;21768;48.562;13.414;2023-03-13T03:40:58;60.55;;;8.55;;
35648;SDS011;21768;48.562;13.414;2023-03-13T03:43:24;140.25;;;10.45;;
35648;SDS011;21768;48.562;13.414;2023-03-13T03:45:49;153.88;;;8.88;;
35648;SDS011;21768;48.562;13.414;2023-03-13T03:48:15;110.38;;;7.75;;
35648;SDS011;21768;48.562;13.414;2023-03-13T03:50:40;93.53;;;8.23;;
35648;SDS011;21768;48.562;13.414;2023-03-13T03:53:06;132.75;;;7.32;;
35648;SDS011;21768;48.562;13.414;2023-03-13T03:55:31;117.55;;;8.40;;
35648;SDS011;21768;48.562;13.414;2023-03-13T03:57:57;114.22;;;8.05;;
35648;SDS011;21768;48.562;13.414;2023-03-13T04:00:23;105.60;;;8.02;;
35648;SDS011;21768;48.562;13.414;2023-03-13T04:02:48;63.88;;;7.13;;
35648;SDS011;21768;48.562;13.414;2023-03-13T04:05:14;102.18;;;7.50;;
35648;SDS011;21768;48.562;13.414;2023-03-13T04:07:39;84.55;;;6.00;;
35648;SDS011;21768;48.562;13.414;2023-03-13T04:10:05;53.15;;;6.47;;
35648;SDS011;21768;48.562;13.414;2023-03-13T04:12:31;79.10;;;6.32;;
35648;SDS011;21768;48.562;13.414;2023-03-13T04:14:56;60.15;;;8.02;;
35648;SDS011;21768;48.562;13.414;2023-03-13T04:17:21;47.65;;;6.97;;
35648;SDS011;21768;48.562;13.414;2023-03-13T04:19:46;44.95;;;6.10;;
35648;SDS011;21768;48.562;13.414;2023-03-13T04:22:12;90.53;;;7.07;;
35648;SDS011;21768;48.562;13.414;2023-03-13T04:24:37;58.20;;;6.43;;
35648;SDS011;21768;48.562;13.414;2023-03-13T04:27:03;38.75;;;5.85;;
35648;SDS011;21768;48.562;13.414;2023-03-13T04:29:30;43.20;;;6.88;;
35648;SDS011;21768;48.562;13.414;2023-03-13T04:31:59;45.05;;;6.43;;
35648;SDS011;21768;48.562;13.414;2023-03-13T04:34:25;59.13;;;7.22;;
35648;SDS011;21768;48.562;13.414;2023-03-13T04:36:50;53.08;;;6.55;;
35648;SDS011;21768;48.562;13.414;2023-03-13T04:39:16;100.90;;;7.78;;
35648;SDS011;21768;48.562;13.414;2023-03-13T04:41:41;41.45;;;6.85;;
35648;SDS011;21768;48.562;13.414;2023-03-13T04:44:07;60.70;;;6.50;;
35648;SDS011;21768;48.562;13.414;2023-03-13T04:46:32;24.20;;;6.10;;
35648;SDS011;21768;48.562;13.414;2023-03-13T04:48:57;34.08;;;5.78;;
35648;SDS011;21768;48.562;13.414;2023-03-13T04:51:23;40.03;;;6.68;;
35648;SDS011;21768;48.562;13.414;2023-03-13T04:53:48;74.85;;;6.40;;
35648;SDS011;21768;48.562;13.414;2023-03-13T04:56:18;46.70;;;6.10;;
35648;SDS011;21768;48.562;13.414;2023-03-13T04:58:47;61.33;;;7.20;;
35648;SDS011;21768;48.562;13.414;2023-03-13T05:01:13;44.05;;;6.20;;
35648;SDS011;21768;48.562;13.414;2023-03-13T05:03:38;56.72;;;5.85;;
35648;SDS011;21768;48.562;13.414;2023-03-13T05:06:04;62.30;;;6.88;;
35648;SDS011;21768;48.562;13.414;2023-03-13T05:08:30;93.30;;;7.28;;
35648;SDS011;21768;48.562;13.414;2023-03-13T05:10:55;30.48;;;6.53;;
35648;SDS011;21768;48.562;13.414;2023-03-13T05:13:21;46.10;;;6.85;;
35648;SDS011;21768;48.562;13.414;2023-03-13T05:15:47;166.48;;;8.82;;
35648;SDS011;21768;48.562;13.414;2023-03-13T05:18:12;197.65;;;11.43;;
35648;SDS011;21768;48.562;13.414;2023-03-13T05:20:37;104.30;;;9.10;;
35648;SDS011;21768;48.562;13.414;2023-03-13T05:23:03;118.15;;;8.45;;
35648;SDS011;21768;48.562;13.414;2023-03-13T05:25:28;112.10;;;8.18;;
35648;SDS011;21768;48.562;13.414;2023-03-13T05:27:53;58.35;;;7.70;;
35648;SDS011;21768;48.562;13.414;2023-03-13T05:30:19;52.28;;;7.38;;
35648;SDS011;21768;48.562;13.414;2023-03-13T05:32:44;102.95;;;7.32;;
35648;SDS011;21768;48.562;13.414;2023-03-13T05:35:09;59.08;;;7.65;;
35648;SDS011;21768;48.562;13.414;2023-03-13T05:37:35;66.03;;;6.82;;
35648;SDS011;21768;48.562;13.414;2023-03-13T05:40:00;49.53;;;6.90;;
35648;SDS011;21768;48.562;13.414;2023-03-13T05:42:25;19.70;;;6.63;;
35648;SDS011;21768;48.562;13.414;2023-03-13T05:44:51;24.80;;;6.50;;
35648;SDS011;21768;48.562;13.414;2023-03-13T05:47:16;38.63;;;7.03;;
35648;SDS011;21768;48.562;13.414;2023-03-13T05:49:42;57.30;;;5.95;;
35648;SDS011;21768;48.562;13.414;2023-03-13T05:52:08;31.88;;;6.10;;
35648;SDS011;21768;48.562;13.414;2023-03-13T05:54:33;35.78;;;6.28;;
35648;SDS011;21768;48.562;13.414;2023-03-13T05:56:58;100.55;;;9.25;;
35648;SDS011;21768;48.562;13.414;2023-03-13T05:59:24;113.65;;;6.63;;
35648;SDS011;21768;48.562;13.414;2023-03-13T06:01:49;35.72;;;5.85;;
35648;SDS011;21768;48.562;13.414;2023-03-13T06:04:14;129.02;;;7.30;;
35648;SDS011;21768;48.562;13.414;2023-03-13T06:06:40;124.90;;;6.80;;
35648;SDS011;21768;48.562;13.414;2023-03-13T06:09:05;81.70;;;6.35;;
35648;SDS011;21768;48.562;13.414;2023-03-13T06:11:31;69.20;;;5.53;;
35648;SDS011;21768;48.562;13.414;2023-03-13T06:13:56;114.30;;;6.85;;
35648;SDS011;21768;48.562;13.414;2023-03-13T06:16:21;173.43;;;9.63;;
35648;SDS011;21768;48.562;13.414;2023-03-13T06:18:47;185.40;;;10.40;;
35648;SDS011;21768;48.562;13.414;2023-03-13T06:21:12;151.70;;;7.75;;
35648;SDS011;21768;48.562;13.414;2023-03-13T06:23:38;148.00;;;6.60;;
35648;SDS011;21768;48.562;13.414;2023-03-13T06:26:03;143.02;;;7.10;;
35648;SDS011;21768;48.562;13.414;2023-03-13T06:28:29;156.57;;;7.75;;
35648;SDS011;21768;48.562;13.414;2023-03-13T06:30:54;117.85;;;6.88;;
35648;SDS011;21768;48.562;13.414;2023-03-13T06:33:20;192.10;;;7.15;;
35648;SDS011;21768;48.562;13.414;2023-03-13T06:35:45;176.50;;;7.32;;
35648;SDS011;21768;48.562;13.414;2023-03-13T06:38:11;162.43;;;6.95;;
35648;SDS011;21768;48.562;13.414;2023-03-13T06:40:36;173.55;;;8.27;;
35648;SDS011;21768;48.562;13.414;2023-03-13T06:43:01;127.40;;;7.22;;
35648;SDS011;21768;48.562;13.414;2023-03-13T06:45:27;65.03;;;5.88;;
35648;SDS011;21768;48.562;13.414;2023-03-13T06:47:52;70.13;;;5.47;;
35648;SDS011;21768;48.562;13.414;2023-03-13T06:50:18;42.95;;;5.72;;
35648;SDS011;21768;48.562;13.414;2023-03-13T06:52:44;24.65;;;5.82;;
35648;SDS011;21768;48.562;13.414;2023-03-13T06:55:11;14.13;;;4.97;;
35648;SDS011;21768;48.562;13.414;2023-03-13T06:57:36;11.65;;;5.80;;
35648;SDS011;21768;48.562;13.414;2023-03-13T07:00:02;8.90;;;5.22;;
35648;SDS011;21768;48.562;13.414;2023-03-13T07:02:30;8.68;;;5.55;;
35648;SDS011;21768;48.562;13.414;2023-03-13T07:04:56;10.60;;;5.53;;
35648;SDS011;21768;48.562;13.414;2023-03-13T07:07:21;7.35;;;4.80;;
35648;SDS011;21768;48.562;13.414;2023-03-13T07:09:46;9.80;;;4.90;;
35648;SDS011;21768;48.562;13.414;2023-03-13T07:12:12;7.00;;;4.22;;
35648;SDS011;21768;48.562;13.414;2023-03-13T07:14:37;10.05;;;4.70;;
35648;SDS011;21768;48.562;13.414;2023-03-13T07:17:02;9.80;;;4.57;;
35648;SDS011;21768;48.562;13.414;2023-03-13T07:19:27;8.27;;;4.85;;
35648;SDS011;21768;48.562;13.414;2023-03-13T07:21:53;7.22;;;4.88;;
35648;SDS011;21768;48.562;13.414;2023-03-13T07:24:19;7.40;;;4.70;;
35648;SDS011;21768;48.562;13.414;2023-03-13T07:26:44;8.55;;;4.68;;
35648;SDS011;21768;48.562;13.414;2023-03-13T07:29:10;7.88;;;4.55;;
35648;SDS011;21768;48.562;13.414;2023-03-13T07:31:35;6.68;;;3.97;;
35648;SDS011;21768;48.562;13.414;2023-03-13T07:34:01;6.20;;;4.10;;
35648;SDS011;21768;48.562;13.414;2023-03-13T07:36:26;5.53;;;3.47;;
35648;SDS011;21768;48.562;13.414;2023-03-13T07:38:52;5.85;;;3.83;;
35648;SDS011;21768;48.562;13.414;2023-03-13T07:41:18;7.60;;;4.32;;
35648;SDS011;21768;48.562;13.414;2023-03-13T07:43:44;8.48;;;3.97;;
35648;SDS011;21768;48.562;13.414;2023-03-13T07:46:14;5.82;;;3.97;;
35648;SDS011;21768;48.562;13.414;2023-03-13T07:48:42;9.38;;;4.65;;
35648;SDS011;21768;48.562;13.414;2023-03-13T07:51:12;7.60;;;4.82;;
35648;SDS011;21768;48.562;13.414;2023-03-13T07:53:42;12.57;;;4.43;;
35648;SDS011;21768;48.562;13.414;2023-03-13T07:56:10;7.57;;;4.65;;
35648;SDS011;21768;48.562;13.414;2023-03-13T07:58:37;8.38;;;5.20;;
35648;SDS011;21768;48.562;13.414;2023-03-13T08:03:45;9.75;;;5.55;;
35648;SDS011;21768;48.562;13.414;2023-03-13T08:06:14;9.65;;;5.57;;
35648;SDS011;21768;48.562;13.414;2023-03-13T08:08:44;10.68;;;5.20;;
35648;SDS011;21768;48.562;13.414;2023-03-13T08:11:17;9.93;;;5.20;;
35648;SDS011;21768;48.562;13.414;2023-03-13T08:13:44;12.27;;;5.30;;
35648;SDS011;21768;48.562;13.414;2023-03-13T08:16:11;9.15;;;5.70;;
35648;SDS011;21768;48.562;13.414;2023-03-13T08:18:39;14.48;;;7.00;;
35648;SDS011;21768;48.562;13.414;2023-03-13T08:21:07;12.85;;;6.75;;
35648;SDS011;21768;48.562;13.414;2023-03-13T08:23:34;9.82;;;5.93;;
35648;SDS011;21768;48.562;13.414;2023-03-13T08:26:01;9.05;;;5.20;;
35648;SDS011;21768;48.562;13.414;2023-03-13T08:28:29;10.70;;;5.82;;
35648;SDS011;21768;48.562;13.414;2023-03-13T08:30:54;16.33;;;7.53;;
35648;SDS011;21768;48.562;13.414;2023-03-13T08:33:19;10.65;;;6.72;;
35648;SDS011;21768;48.562;13.414;2023-03-13T08:35:45;12.52;;;6.78;;
35648;SDS011;21768;48.562;13.414;2023-03-13T08:38:10;12.95;;;7.05;;
35648;SDS011;21768;48.562;13.414;2023-03-13T08:40:36;14.10;;;7.00;;
35648;SDS011;21768;48.562;13.414;2023-03-13T08:43:01;11.38;;;5.93;;
35648;SDS011;21768;48.562;13.414;2023-03-13T08:45:26;12.18;;;6.05;;
35648;SDS011;21768;48.562;13.414;2023-03-13T08:47:51;11.15;;;4.70;;
35648;SDS011;21768;48.562;13.414;2023-03-13T08:50:18;10.27;;;4.60;;
35648;SDS011;21768;48.562;13.414;2023-03-13T08:52:43;11.48;;;5.00;;
35648;SDS011;21768;48.562;13.414;2023-03-13T08:55:09;8.95;;;4.68;;
35648;SDS011;21768;48.562;13.414;2023-03-13T08:57:35;8.38;;;4.72;;
35648;SDS011;21768;48.562;13.414;2023-03-13T09:00:00;20.00;;;8.18;;
35648;SDS011;21768;48.562;13.414;2023-03-13T09:02:26;11.65;;;5.15;;
35648;SDS011;21768;48.562;13.414;2023-03-13T09:04:51;9.43;;;4.38;;
35648;SDS011;21768;48.562;13.414;2023-03-13T09:07:16;14.20;;;5.30;;
35648;SDS011;21768;48.562;13.414;2023-03-13T09:09:42;10.43;;;5.57;;
35648;SDS011;21768;48.562;13.414;2023-03-13T09:12:08;14.10;;;7.57;;
35648;SDS011;21768;48.562;13.414;2023-03-13T09:14:33;18.05;;;7.78;;
35648;SDS011;21768;48.562;13.414;2023-03-13T09:16:59;12.48;;;6.10;;
35648;SDS011;21768;48.562;13.414;2023-03-13T09:19:24;9.73;;;6.05;;
35648;SDS011;21768;48.562;13.414;2023-03-13T09:21:49;10.30;;;6.07;;
35648;SDS011;21768;48.562;13.414;2023-03-13T09:24:15;16.55;;;6.45;;
35648;SDS011;21768;48.562;13.414;2023-03-13T09:26:41;13.38;;;6.20;;
35648;SDS011;21768;48.562;13.414;2023-03-13T09:29:06;9.77;;;6.03;;
35648;SDS011;21768;48.562;13.414;2023-03-13T09:31:32;12.57;;;5.10;;
35648;SDS011;21768;48.562;13.414;2023-03-13T09:33:58;12.35;;;5.60;;
35648;SDS011;21768;48.562;13.414;2023-03-13T09:36:24;14.60;;;5.57;;
35648;SDS011;21768;48.562;13.414;2023-03-13T09:38:51;9.95;;;5.63;;
35648;SDS011;21768;48.562;13.414;2023-03-13T09:43:57;12.02;;;6.13;;
35648;SDS011;21768;48.562;13.414;2023-03-13T09:49:00;10.98;;;6.22;;
35648;SDS011;21768;48.562;13.414;2023-03-13T09:51:37;10.32;;;6.18;;
35648;SDS011;21768;48.562;13.414;2023-03-13T09:54:31;16.17;;;6.25;;
35648;SDS011;21768;48.562;13.414;2023-03-13T10:02:04;10.10;;;5.75;;
35648;SDS011;21768;48.562;13.414;2023-03-13T10:05:31;14.35;;;7.90;;
35648;SDS011;21768;48.562;13.414;2023-03-13T10:07:58;11.60;;;6.37;;
35648;SDS011;21768;48.562;13.414;2023-03-13T10:13:09;13.27;;;5.82;;
35648;SDS011;21768;48.562;13.414;2023-03-13T10:15:43;12.45;;;5.78;;
35648;SDS011;21768;48.562;13.414;2023-03-13T10:18:18;13.48;;;6.15;;
35648;SDS011;21768;48.562;13.414;2023-03-13T10:20:47;11.23;;;6.18;;
35648;SDS011;21768;48.562;13.414;2023-03-13T10:25:44;13.68;;;6.00;;
35648;SDS011;21768;48.562;13.414;2023-03-13T10:28:10;11.77;;;5.65;;
35648;SDS011;21768;48.562;13.414;2023-03-13T10:31:30;10.13;;;5.53;;
35648;SDS011;21768;48.562;13.414;2023-03-13T10:33:39;11.73;;;5.25;;
35648;SDS011;21768;48.562;13.414;2023-03-13T10:36:10;8.23;;;5.20;;
35648;SDS011;21768;48.562;13.414;2023-03-13T10:38:50;8.65;;;5.43;;
35648;SDS011;21768;48.562;13.414;2023-03-13T10:41:35;9.50;;;5.28;;
35648;SDS011;21768;48.562;13.414;2023-03-13T10:44:03;11.77;;;5.80;;
35648;SDS011;21768;48.562;13.414;2023-03-13T10:46:31;11.73;;;6.10;;
35648;SDS011;21768;48.562;13.414;2023-03-13T10:48:59;12.20;;;5.82;;
35648;SDS011;21768;48.562;13.414;2023-03-13T10:51:37;26.98;;;11.15;;
35648;SDS011;21768;48.562;13.414;2023-03-13T10:54:23;11.52;;;6.25;;
35648;SDS011;21768;48.562;13.414;2023-03-13T10:56:50;63.33;;;18.90;;
35648;SDS011;21768;48.562;13.414;2023-03-13T10:59:23;19.20;;;7.78;;
35648;SDS011;21768;48.562;13.414;2023-03-13T11:01:51;9.70;;;5.50;;
35648;SDS011;21768;48.562;13.414;2023-03-13T11:04:33;7.55;;;4.88;;
35648;SDS011;21768;48.562;13.414;2023-03-13T11:07:13;25.73;;;10.10;;
35648;SDS011;21768;48.562;13.414;2023-03-13T11:09:51;165.32;;;44.92;;
35648;SDS011;21768;48.562;13.414;2023-03-13T11:12:22;67.90;;;20.45;;
35648;SDS011;21768;48.562;13.414;2023-03-13T11:14:47;21.67;;;7.43;;
35648;SDS011;21768;48.562;13.414;2023-03-13T11:17:23;16.42;;;7.32;;
35648;SDS011;21768;48.562;13.414;2023-03-13T11:19:54;10.82;;;5.40;;
35648;SDS011;21768;48.562;13.414;2023-03-13T11:27:37;15.75;;;6.90;;
35648;SDS011;21768;48.562;13.414;2023-03-13T11:32:59;11.45;;;5.70;;
35648;SDS011;21768;48.562;13.414;2023-03-13T11:35:34;11.10;;;6.07;;
35648;SDS011;21768;48.562;13.414;2023-03-13T11:38:12;11.52;;;6.38;;
35648;SDS011;21768;48.562;13.414;2023-03-13T11:46:11;17.90;;;6.60;;
35648;SDS011;21768;48.562;13.414;2023-03-13T11:48:54;12.90;;;5.53;;
35648;SDS011;21768;48.562;13.414;2023-03-13T11:51:37;11.95;;;6.13;;
35648;SDS011;21768;48.562;13.414;2023-03-13T11:56:54;10.40;;;5.68;;
35648;SDS011;21768;48.562;13.414;2023-03-13T12:02:14;10.50;;;5.22;;
35648;SDS011;21768;48.562;13.414;2023-03-13T12:04:54;8.48;;;5.20;;
35648;SDS011;21768;48.562;13.414;2023-03-13T12:07:27;12.25;;;5.82;;
35648;SDS011;21768;48.562;13.414;2023-03-13T12:15:05;8.20;;;4.60;;
35648;SDS011;21768;48.562;13.414;2023-03-13T12:17:50;10.45;;;5.63;;
35648;SDS011;21768;48.562;13.414;2023-03-13T12:23:33;12.10;;;5.80;;
35648;SDS011;21768;48.562;13.414;2023-03-13T12:28:36;10.18;;;5.20;;
35648;SDS011;21768;48.562;13.414;2023-03-13T12:31:13;16.73;;;5.38;;
35648;SDS011;21768;48.562;13.414;2023-03-13T12:39:38;8.20;;;4.85;;
35648;SDS011;21768;48.562;13.414;2023-03-13T12:44:36;10.15;;;5.53;;
35648;SDS011;21768;48.562;13.414;2023-03-13T12:55:39;6.65;;;4.22;;
35648;SDS011;21768;48.562;13.414;2023-03-13T12:58:17;6.72;;;4.00;;
35648;SDS011;21768;48.562;13.414;2023-03-13T13:01:04;13.13;;;4.35;;
35648;SDS011;21768;48.562;13.414;2023-03-13T13:03:35;6.50;;;3.88;;
35648;SDS011;21768;48.562;13.414;2023-03-13T13:06:08;7.25;;;4.32;;
35648;SDS011;21768;48.562;13.414;2023-03-13T13:16:43;6.28;;;3.33;;
35648;SDS011;21768;48.562;13.414;2023-03-13T13:19:41;11.05;;;3.75;;
35648;SDS011;21768;48.562;13.414;2023-03-13T13:30:00;5.18;;;3.33;;
35648;SDS011;21768;48.562;13.414;2023-03-13T13:35:21;11.95;;;4.47;;
35648;SDS011;21768;48.562;13.414;2023-03-13T13:37:50;11.25;;;4.88;;
35648;SDS011;21768;48.562;13.414;2023-03-13T13:40:22;10.73;;;5.28;;
35648;SDS011;21768;48.562;13.414;2023-03-13T13:42:51;6.18;;;3.90;;
35648;SDS011;21768;48.562;13.414;2023-03-13T13:45:20;5.35;;;2.67;;
35648;SDS011;21768;48.562;13.414;2023-03-13T13:48:12;5.47;;;3.30;;
35648;SDS011;21768;48.562;13.414;2023-03-13T13:50:38;7.65;;;3.28;;
35648;SDS011;21768;48.562;13.414;2023-03-13T13:53:41;7.78;;;3.10;;
35648;SDS011;21768;48.562;13.414;2023-03-13T14:01:37;6.55;;;3.08;;
35648;SDS011;21768;48.562;13.414;2023-03-13T14:04:13;5.63;;;2.13;;
35648;SDS011;21768;48.562;13.414;2023-03-13T14:06:41;2.50;;;1.95;;
35648;SDS011;21768;48.562;13.414;2023-03-13T14:11:57;5.03;;;2.28;;
35648;SDS011;21768;48.562;13.414;2023-03-13T14:14:23;4.80;;;3.00;;
35648;SDS011;21768;48.562;13.414;2023-03-13T14:16:49;4.15;;;2.58;;
35648;SDS011;21768;48.562;13.414;2023-03-13T14:21:48;4.85;;;2.60;;
35648;SDS011;21768;48.562;13.414;2023-03-13T14:24:14;5.43;;;2.85;;
35648;SDS011;21768;48.562;13.414;2023-03-13T14:26:43;6.90;;;3.30;;
35648;SDS011;21768;48.562;13.414;2023-03-13T14:29:16;8.95;;;3.22;;
35648;SDS011;21768;48.562;13.414;2023-03-13T14:31:52;5.32;;;2.85;;
35648;SDS011;21768;48.562;13.414;2023-03-13T14:34:18;4.57;;;2.58;;
35648;SDS011;21768;48.562;13.414;2023-03-13T14:42:00;3.65;;;1.88;;
35648;SDS011;21768;48.562;13.414;2023-03-13T14:44:29;4.65;;;2.22;;
35648;SDS011;21768;48.562;13.414;2023-03-13T14:46:59;2.72;;;2.00;;
35648;SDS011;21768;48.562;13.414;2023-03-13T14:49:29;5.63;;;1.90;;
35648;SDS011;21768;48.562;13.414;2023-03-13T14:52:03;4.97;;;2.40;;
35648;SDS011;21768;48.562;13.414;2023-03-13T14:54:35;4.32;;;1.95;;
35648;SDS011;21768;48.562;13.414;2023-03-13T14:57:16;3.55;;;1.95;;
35648;SDS011;21768;48.562;13.414;2023-03-13T14:59:46;2.47;;;1.75;;
35648;SDS011;21768;48.562;13.414;2023-03-13T15:02:23;2.58;;;1.70;;
35648;SDS011;21768;48.562;13.414;2023-03-13T15:05:02;2.92;;;2.13;;
35648;SDS011;21768;48.562;13.414;2023-03-13T15:07:44;5.60;;;2.15;;
35648;SDS011;21768;48.562;13.414;2023-03-13T15:10:23;5.20;;;2.10;;
35648;SDS011;21768;48.562;13.414;2023-03-13T15:15:53;2.83;;;1.85;;
35648;SDS011;21768;48.562;13.414;2023-03-13T15:20:48;3.95;;;1.77;;
35648;SDS011;21768;48.562;13.414;2023-03-13T15:23:52;3.55;;;1.80;;
35648;SDS011;21768;48.562;13.414;2023-03-13T15:26:20;4.28;;;1.70;;
35648;SDS011;21768;48.562;13.414;2023-03-13T15:28:46;3.80;;;1.75;;
35648;SDS011;21768;48.562;13.414;2023-03-13T15:31:11;3.35;;;1.60;;
35648;SDS011;21768;48.562;13.414;2023-03-13T15:33:39;4.20;;;1.73;;
35648;SDS011;21768;48.562;13.414;2023-03-13T15:36:05;2.72;;;1.70;;
35648;SDS011;21768;48.562;13.414;2023-03-13T15:38:31;4.00;;;1.55;;
35648;SDS011;21768;48.562;13.414;2023-03-13T15:40:56;5.40;;;1.70;;
35648;SDS011;21768;48.562;13.414;2023-03-13T15:43:22;1.45;;;1.13;;
35648;SDS011;21768;48.562;13.414;2023-03-13T15:45:48;4.60;;;1.88;;
35648;SDS011;21768;48.562;13.414;2023-03-13T15:48:19;8.73;;;2.30;;
35648;SDS011;21768;48.562;13.414;2023-03-13T15:50:52;5.80;;;2.78;;
35648;SDS011;21768;48.562;13.414;2023-03-13T15:53:21;3.05;;;1.52;;
35648;SDS011;21768;48.562;13.414;2023-03-13T15:55:48;5.63;;;2.15;;
35648;SDS011;21768;48.562;13.414;2023-03-13T15:58:15;3.65;;;2.00;;
35648;SDS011;21768;48.562;13.414;2023-03-13T16:00:41;3.55;;;1.60;;
35648;SDS011;21768;48.562;13.414;2023-03-13T16:03:17;6.25;;;2.45;;
35648;SDS011;21768;48.562;13.414;2023-03-13T16:05:49;3.13;;;1.60;;
35648;SDS011;21768;48.562;13.414;2023-03-13T16:08:15;5.35;;;1.45;;
35648;SDS011;21768;48.562;13.414;2023-03-13T16:10:42;5.38;;;1.40;;
35648;SDS011;21768;48.562;13.414;2023-03-13T16:13:08;4.95;;;3.88;;
35648;SDS011;21768;48.562;13.414;2023-03-13T16:15:34;1.85;;;1.27;;
35648;SDS011;21768;48.562;13.414;2023-03-13T16:18:00;2.08;;;1.20;;
35648;SDS011;21768;48.562;13.414;2023-03-13T16:20:26;5.50;;;1.40;;
35648;SDS011;21768;48.562;13.414;2023-03-13T16:22:53;2.13;;;1.20;;
35648;SDS011;21768;48.562;13.414;2023-03-13T16:25:19;4.45;;;1.40;;
35648;SDS011;21768;48.562;13.414;2023-03-13T16:27:45;5.60;;;1.55;;